Map

Track Data

SID SEASON NUMBER BASIN SUBBASIN NAME ISO_TIME NATURE LAT LON WMO_WIND WMO_PRES WMO_AGENCY TRACK_TYPE DIST2LAND LANDFALL IFLAG USA_AGENCY USA_ATCF_ID USA_LAT USA_LON USA_RECORD USA_STATUS USA_WIND USA_PRES USA_SSHS USA_R34_NE USA_R34_SE USA_R34_SW USA_R34_NW USA_R50_NE USA_R50_SE USA_R50_SW USA_R50_NW USA_R64_NE USA_R64_SE USA_R64_SW USA_R64_NW USA_POCI USA_ROCI USA_RMW USA_EYE TOKYO_LAT TOKYO_LON TOKYO_GRADE TOKYO_WIND TOKYO_PRES TOKYO_R50_DIR TOKYO_R50_LONG TOKYO_R50_SHORT TOKYO_R30_DIR TOKYO_R30_LONG TOKYO_R30_SHORT TOKYO_LAND CMA_LAT CMA_LON CMA_CAT CMA_WIND CMA_PRES HKO_LAT HKO_LON HKO_CAT HKO_WIND HKO_PRES NEWDELHI_LAT NEWDELHI_LON NEWDELHI_GRADE NEWDELHI_WIND NEWDELHI_PRES NEWDELHI_CI NEWDELHI_DP NEWDELHI_POCI REUNION_LAT REUNION_LON REUNION_TYPE REUNION_WIND REUNION_PRES REUNION_TNUM REUNION_CI REUNION_RMW REUNION_R34_NE REUNION_R34_SE REUNION_R34_SW REUNION_R34_NW REUNION_R50_NE REUNION_R50_SE REUNION_R50_SW REUNION_R50_NW REUNION_R64_NE REUNION_R64_SE REUNION_R64_SW REUNION_R64_NW BOM_LAT BOM_LON BOM_TYPE BOM_WIND BOM_PRES BOM_TNUM BOM_CI BOM_RMW BOM_R34_NE BOM_R34_SE BOM_R34_SW BOM_R34_NW BOM_R50_NE BOM_R50_SE BOM_R50_SW BOM_R50_NW BOM_R64_NE BOM_R64_SE BOM_R64_SW BOM_R64_NW BOM_ROCI BOM_POCI BOM_EYE BOM_POS_METHOD BOM_PRES_METHOD NADI_LAT NADI_LON NADI_CAT NADI_WIND NADI_PRES WELLINGTON_LAT WELLINGTON_LON WELLINGTON_WIND WELLINGTON_PRES DS824_LAT DS824_LON DS824_STAGE DS824_WIND DS824_PRES TD9636_LAT TD9636_LON TD9636_STAGE TD9636_WIND TD9636_PRES TD9635_LAT TD9635_LON TD9635_WIND TD9635_PRES TD9635_ROCI NEUMANN_LAT NEUMANN_LON NEUMANN_CLASS NEUMANN_WIND NEUMANN_PRES MLC_LAT MLC_LON MLC_CLASS MLC_WIND MLC_PRES USA_GUST BOM_GUST BOM_GUST_PER REUNION_GUST REUNION_GUST_PER USA_SEAHGT USA_SEARAD_NE USA_SEARAD_SE USA_SEARAD_SW USA_SEARAD_NW STORM_SPEED STORM_DIR
1955259N10153 1955 72 WP MM KATE 1955-09-16 06:00:00 TS 9.50000 152.800 main 1383 1378 O________O_O__ jtwc_wp WP141955 9.50000 152.800 15 -1 9.50000 152.800 TC 15 9.50000 152.800 15 1007 60 9 278
1955259N10153 1955 72 WP MM KATE 1955-09-16 09:00:00 TS 9.56495 152.353 main 1388 1381 P________P_P__ WP141955 9.56495 152.353 15 -1 9.56495 152.353 TC 15 9.56495 152.353 15 1007 60 10 276
1955259N10153 1955 72 WP MM KATE 1955-09-16 12:00:00 TS 9.60000 151.800 main 1381 1373 O________OOO__ jtwc_wp WP141955 9.60000 151.800 15 -1 9.60000 151.800 TC 15 9.60000 151.800 1 15 9.60000 151.800 15 1007 60 13 272
1955259N10153 1955 72 WP MM KATE 1955-09-16 15:00:00 TS 9.60185 151.078 main 1373 1349 P________PPP__ WP141955 9.59260 151.080 17 -1 9.59260 151.080 TC 17 9.65736 151.067 1 17 9.59260 151.080 17 1007 60 15 271
1955259N10153 1955 72 WP MM KATE 1955-09-16 18:00:00 TS 9.62223 150.308 main 1349 1344 O________OPO__ jtwc_wp WP141955 9.60000 150.300 20 -1 9.60000 150.300 TC 20 9.71115 150.338 1 20 9.60000 150.300 20 1007 60 15 274
1955259N10153 1955 72 WP MM KATE 1955-09-16 21:00:00 TS 9.70911 149.592 main 1344 1338 P________PPP__ WP141955 9.69236 149.585 22 -1 9.69236 149.585 TC 22 9.75935 149.614 1 22 9.69236 149.585 22 1006 90 14 277
1955259N10153 1955 72 WP MM KATE 1955-09-17 00:00:00 TS 9.80000 148.900 main 1343 1337 O________OOO__ jtwc_wp WP141955 9.80000 148.900 25 -1 9.80000 148.900 TC 25 9.80000 148.900 1 25 9.80000 148.900 25 1006 120 14 276
1955259N10153 1955 72 WP MM KATE 1955-09-17 03:00:00 TS 9.85138 148.232 main 1347 1344 P________PPP__ WP141955 9.85733 148.242 25 -1 9.85733 148.242 TC 25 9.83351 148.200 1 25 9.85733 148.242 25 1006 120 13 274
1955259N10153 1955 72 WP MM KATE 1955-09-17 06:00:00 TS 9.89244 147.581 main 1344 1344 O________OPO__ jtwc_wp WP141955 9.90000 147.600 25 -1 9.90000 147.600 TC 25 9.86978 147.525 1 25 9.90000 147.600 25 1006 120 13 274
1955259N10153 1955 72 WP MM KATE 1955-09-17 09:00:00 TS 9.93715 146.917 main 1344 1344 P________PPP__ WP141955 9.94249 146.927 25 -1 9.94249 146.927 TC 25 9.92113 146.887 1 25 9.94249 146.927 25 1006 120 13 275
1955259N10153 1955 72 WP MM KATE 1955-09-17 12:00:00 TS 10.0000 146.300 main 1356 1356 O________OOO__ jtwc_wp WP141955 10.0000 146.300 25 -1 10.0000 146.300 TC 25 10.0000 146.300 1 25 10.0000 146.300 25 1006 120 11 278
1955259N10153 1955 72 WP MM KATE 1955-09-17 15:00:00 TS 10.0850 145.779 main 1369 1369 P________PPP__ WP141955 10.0773 145.770 30 -1 10.0773 145.770 TC 30 10.1081 145.807 1 27 10.0773 145.770 30 1005 120 10 282
1955259N10153 1955 72 WP MM KATE 1955-09-17 18:00:00 TS 10.2115 145.314 main 1385 1385 O________OPO__ jtwc_wp WP141955 10.2000 145.300 35 0 10.2000 145.300 TC 35 10.2461 145.357 1 30 10.2000 145.300 35 1005 120 9 290
1955259N10153 1955 72 WP MM KATE 1955-09-17 21:00:00 TS 10.3969 144.891 main 1413 1413 P________PPP__ WP141955 10.3922 144.887 35 0 10.3922 144.887 TC 35 10.4112 144.904 1 32 10.3922 144.887 35 1005 120 10 293
1955259N10153 1955 72 WP MM KATE 1955-09-18 00:00:00 TS 10.6000 144.400 main 1443 1443 O________OOO__ jtwc_wp WP141955 10.6000 144.400 35 0 10.6000 144.400 TC 35 10.6000 144.400 2 35 10.6000 144.400 35 1005 120 12 287
1955259N10153 1955 72 WP MM KATE 1955-09-18 03:00:00 TS 10.7442 143.699 main 1469 1469 P________PPP__ WP141955 10.7353 143.672 35 0 10.7353 143.672 TC 35 10.7711 143.778 2 35 10.7353 143.672 35 1005 150 14 281
1955259N10153 1955 72 WP MM KATE 1955-09-18 06:00:00 TS 10.8706 143.039 1004 tokyo main 1498 1489 OOO______OPO__ jtwc_wp WP141955 10.9000 142.900 35 0 10.5000 143.700 2 1004 0 0 0 10.5000 143.800 1 29 1004 10.9000 142.900 TC 35 10.9678 143.102 2 35 10.9000 142.900 35 1005 180 13 285
1955259N10153 1955 72 WP MM KATE 1955-09-18 09:00:00 TS 11.0788 142.413 main 1497 1490 PPP______PPP__ WP141955 11.1623 142.270 35 0 10.7030 142.837 2 1004 0 0 10.7006 142.877 1 29 1004 11.1623 142.270 TC 35 11.2054 142.399 2 35 11.1623 142.270 35 1005 150 13 292
1955259N10153 1955 72 WP MM KATE 1955-09-18 12:00:00 TS 11.3636 141.782 1004 tokyo main 1510 1504 OOO______OOO__ jtwc_wp WP141955 11.5000 141.700 35 0 11.0000 142.000 9 1004 0 0 0 11.0000 142.000 1 29 1004 11.5000 141.700 TC 35 11.5000 141.700 2 35 11.5000 141.700 35 1005 120 14 298
1955259N10153 1955 72 WP MM KATE 1955-09-18 15:00:00 TS 11.7393 141.162 main 1518 1518 PPP______PPP__ WP141955 11.8772 141.172 35 0 11.4549 141.213 9 1004 0 0 11.4623 141.205 1 29 1004 11.8772 141.172 TC 35 11.8874 141.035 2 35 11.8772 141.172 35 1005 150 15 304
1955259N10153 1955 72 WP MM KATE 1955-09-18 18:00:00 TS 12.2045 140.530 1004 tokyo main 1542 1542 OOO______OPO__ jtwc_wp WP141955 12.3000 140.600 35 0 12.0000 140.500 9 1004 0 0 0 12.0000 140.500 1 29 1004 12.3000 140.600 TC 35 12.3270 140.378 2 35 12.3000 140.600 35 1005 180 16 307
1955259N10153 1955 72 WP MM KATE 1955-09-18 21:00:00 TS 12.6922 139.846 main 1536 1476 PPP______PPP__ WP141955 12.7577 139.858 35 0 12.5796 139.885 9 1004 0 0 12.5221 139.885 1 29 1004 12.7577 139.858 TC 35 12.7781 139.732 2 35 12.7577 139.858 35 1005 180 16 305
1955259N10153 1955 72 WP MM KATE 1955-09-19 00:00:00 TS 13.1500 139.167 1004 tokyo main 1478 1419 OOO______OOO__ jtwc_wp WP141955 13.2000 139.100 35 0 13.1000 139.300 9 1004 0 0 0 13.0000 139.300 1 29 1004 13.2000 139.100 TC 35 13.2000 139.100 2 35 13.2000 139.100 35 1005 180 15 303
1955259N10153 1955 72 WP MM KATE 1955-09-19 03:00:00 TS 13.5172 138.544 main 1408 1362 PPP______PPP__ WP141955 13.5797 138.477 35 0 13.4373 138.665 9 1004 0 0 13.3799 138.657 1 29 1004 13.5797 138.477 TC 35 13.5471 138.509 2 35 13.5797 138.477 35 1004 210 14 300
1955259N10153 1955 72 WP MM KATE 1955-09-19 06:00:00 TS 13.8264 137.938 1004 tokyo main 1351 1306 OOO______OPO__ jtwc_wp WP141955 13.9000 137.900 35 0 13.7000 138.000 9 1004 0 0 0 13.7000 138.000 1 29 1004 13.9000 137.900 TC 35 13.8584 137.929 2 35 13.9000 137.900 35 1004 240 13 296
1955259N10153 1955 72 WP MM KATE 1955-09-19 09:00:00 TS 14.1058 137.320 main 1295 1237 PPP______PPP__ WP141955 14.1573 137.300 35 0 14.0072 137.322 9 1004 0 0 14.0147 137.365 1 29 1004 14.1573 137.300 TC 35 14.1407 137.334 2 35 14.1573 137.300 35 1004 210 13 294
1955259N10153 1955 72 WP MM KATE 1955-09-19 12:00:00 TS 14.3667 136.683 1004 tokyo main 1237 1178 OOO______OOO__ jtwc_wp WP141955 14.4000 136.700 35 0 14.3000 136.600 9 1004 0 0 0 14.3000 136.700 1 29 1004 14.4000 136.700 TC 35 14.4000 136.700 2 35 14.4000 136.700 35 1004 180 14 293
1955259N10153 1955 72 WP MM KATE 1955-09-19 15:00:00 TS 14.6493 136.025 main 1167 1112 PPP______PPP__ WP141955 14.7144 136.145 35 0 14.5425 135.800 9 1004 0 0 14.5423 135.972 1 29 1004 14.7144 136.145 TC 35 14.6677 135.945 2 38 14.7144 136.145 35 1004 180 14 293
1955259N10153 1955 72 WP MM KATE 1955-09-19 18:00:00 TS 14.9186 135.309 1004 tokyo main 1102 1025 OOO______OPO__ jtwc_wp WP141955 15.0000 135.500 35 0 14.8000 135.000 9 1004 0 0 0 14.8000 135.200 1 29 1004 15.0000 135.500 TC 35 14.9113 135.156 2 42 15.0000 135.500 35 1005 180 16 289
1955259N10153 1955 72 WP MM KATE 1955-09-19 21:00:00 TS 15.1649 134.452 main 1028 951 PPP______PPP__ WP141955 15.1733 134.577 42 0 15.1725 134.240 9 1004 0 0 15.1728 134.348 1 29 1004 15.1733 134.577 TC 42 15.1241 134.389 2 46 15.1733 134.577 42 1004 180 17 286
1955259N10153 1955 72 WP MM KATE 1955-09-20 00:00:00 TS 15.3667 133.667 1004 tokyo main 955 909 OOO______OOO__ jtwc_wp WP141955 15.3000 133.700 50 0 15.5000 133.600 9 1004 0 0 0 15.5000 133.600 1 29 1004 15.3000 133.700 TC 50 15.3000 133.700 2 50 15.3000 133.700 50 1004 180 13 286
1955259N10153 1955 72 WP MM KATE 1955-09-20 03:00:00 TS 15.5185 133.168 main 909 875 PPP______PPP__ WP141955 15.4644 133.182 50 0 15.6371 133.155 9 1003 0 0 15.6370 133.140 1 33 1002 15.4644 133.182 TC 50 15.4439 133.168 2 52 15.4644 133.182 50 1002 180 9 287
1955259N10153 1955 72 WP MM KATE 1955-09-20 06:00:00 TS 15.6255 132.786 1002 tokyo main 875 841 OOO______OPO__ jtwc_wp WP141955 15.6000 132.800 50 0 15.7000 132.800 9 1002 0 0 0 15.7000 132.800 2 38 1001 15.6000 132.800 TC 50 15.5530 132.718 2 55 15.6000 132.800 50 1001 180 8 284
1955259N10153 1955 72 WP MM KATE 1955-09-20 09:00:00 TS 15.7063 132.360 main 841 809 PPP______PPP__ WP141955 15.6649 132.350 55 0 15.8074 132.400 9 1002 0 0 15.7999 132.400 2 38 999 15.6649 132.350 TC 55 15.6357 132.309 2 57 15.6649 132.350 55 999 180 8 280
1955259N10153 1955 72 WP MM KATE 1955-09-20 12:00:00 TS 15.7667 131.933 1002 tokyo main 799 762 OOO______OOO__ jtwc_wp WP141955 15.7000 131.900 60 0 15.9000 132.000 9 1002 0 0 0 15.9000 132.000 2 38 998 15.7000 131.900 TC 60 15.7000 131.900 2 60 15.7000 131.900 60 998 180 8 278
1955259N10153 1955 72 WP MM KATE 1955-09-20 15:00:00 TS 15.8193 131.496 main 762 732 PPP______PPP__ WP141955 15.7350 131.442 62 0 15.9649 131.607 9 1001 0 0 16.0074 131.600 2 43 996 15.7350 131.442 TC 62 15.7385 131.442 2 62 15.7350 131.442 62 995 180 8 278
1955259N10153 1955 72 WP MM KATE 1955-09-20 18:00:00 TS 15.8833 131.067 1000 tokyo main 732 704 OOO______OOO__ jtwc_wp WP141955 15.8000 131.000 65 1 16.0000 131.200 9 1000 0 0 0 16.1000 131.200 3 48 995 15.8000 131.000 TC 65 15.8000 131.000 3 65 15.8000 131.000 65 992 180 8 281
1955259N10153 1955 72 WP MM KATE 1955-09-20 21:00:00 TS 15.9809 130.657 main 704 677 PPP______PPP__ WP141955 15.9423 130.608 65 1 15.9626 130.720 9 995 0 0 16.1574 130.800 3 48 993 15.9423 130.608 TC 65 15.9384 130.599 3 65 15.9423 130.608 65 989 210 8 285
1955259N10153 1955 72 WP MM KATE 1955-09-21 00:00:00 TS 16.1000 130.250 990 tokyo main 677 644 OOO______OOO__ jtwc_wp WP141955 16.1000 130.200 65 1 16.0000 130.300 9 990 0 0 0 16.2000 130.400 3 48 992 16.1000 130.200 TC 65 16.1000 130.200 4 65 16.1000 130.200 65 986 240 8 288
1955259N10153 1955 72 WP MM KATE 1955-09-21 03:00:00 TS 16.2350 129.831 main 634 600 PPP______PPP__ WP141955 16.2075 129.707 72 1 16.3146 130.115 9 987 0 0 16.2499 130.000 3 53 990 16.2075 129.707 TC 72 16.2231 129.747 4 71 16.2075 129.707 71 983 240 9 287
1955259N10153 1955 72 WP MM KATE 1955-09-21 06:00:00 TS 16.3546 129.394 985 tokyo main 605 567 OOO______OPO__ jtwc_wp WP141955 16.3000 129.200 80 1 16.6000 129.900 9 985 0 0 0 16.3000 129.600 3 58 988 16.3000 129.200 TC 80 16.3274 129.267 4 77 16.3000 129.200 78 980 240 9 282
1955259N10153 1955 72 WP MM KATE 1955-09-21 09:00:00 TS 16.4150 128.943 main 558 527 PPP______PPP__ WP141955 16.3998 128.750 85 2 16.5302 129.402 9 985 0 0 16.3422 129.230 3 63 984 16.3998 128.750 TC 85 16.4180 128.778 4 83 16.3998 128.750 84 977 240 9 277
1955259N10153 1955 72 WP MM KATE 1955-09-21 12:00:00 TS 16.4667 128.467 985 tokyo main 527 483 OOO______OOO__ jtwc_wp WP141955 16.5000 128.300 90 2 16.4000 128.800 9 985 0 0 0 16.4000 128.800 4 68 980 16.5000 128.300 TC 90 16.5000 128.300 4 90 16.5000 128.300 90 974 240 10 279
1955259N10153 1955 72 WP MM KATE 1955-09-21 15:00:00 TS 16.5657 127.949 main 482 449 PPP______PPP__ WP141955 16.6076 127.785 90 2 16.4773 128.258 9 982 0 0 16.5001 128.223 4 72 976 16.6076 127.785 TC 90 16.5940 127.861 4 95 16.6076 127.785 90 970 240 10 281
1955259N10153 1955 72 WP MM KATE 1955-09-21 18:00:00 TS 16.6632 127.439 980 tokyo main 449 418 OOO______OPO__ jtwc_wp WP141955 16.7000 127.300 90 2 16.6000 127.700 9 980 0 0 0 16.6000 127.600 4 77 973 16.7000 127.300 TC 90 16.6795 127.435 4 100 16.7000 127.300 90 967 240 9 280
1955259N10153 1955 72 WP MM KATE 1955-09-21 21:00:00 TS 16.7266 126.987 main 418 398 PPP______PPP__ WP141955 16.7648 126.935 100 3 16.6576 127.077 9 972 0 0 16.6575 127.020 4 82 969 16.7648 126.935 TC 100 16.7502 127.017 4 105 16.7648 126.935 100 964 240 8 277
1955259N10153 1955 72 WP MM KATE 1955-09-22 00:00:00 TS 16.7667 126.567 965 tokyo main 398 373 OOO______OOO__ jtwc_wp WP141955 16.8000 126.600 110 3 16.7000 126.500 9 965 0 0 0 16.7000 126.500 5 87 966 16.8000 126.600 TC 110 16.8000 126.600 4 110 16.8000 126.600 110 961 240 8 274
1955259N10153 1955 72 WP MM KATE 1955-09-22 03:00:00 TS 16.7871 126.158 main 373 351 PPP______PPP__ WP141955 16.8074 126.215 115 4 16.7573 126.063 9 962 0 0 16.7498 126.077 5 92 963 16.8074 126.215 TC 115 16.7930 126.162 4 112 16.8074 126.215 115 956 270 8 272
1955259N10153 1955 72 WP MM KATE 1955-09-22 06:00:00 TS 16.7950 125.754 960 tokyo main 351 308 OOO______OPO__ jtwc_wp WP141955 16.8000 125.800 120 4 16.8000 125.700 9 960 0 0 0 16.8000 125.700 5 97 961 16.8000 125.800 TC 120 16.7699 125.727 4 115 16.8000 125.800 120 951 300 8 270
1955259N10153 1955 72 WP MM KATE 1955-09-22 09:00:00 TS 16.7844 125.332 main 298 255 PPP______PPP__ WP141955 16.7700 125.342 120 4 16.7923 125.357 9 960 0 0 16.8424 125.307 5 101 956 16.7700 125.342 TC 120 16.7618 125.303 4 117 16.7700 125.342 120 945 270 8 272
1955259N10153 1955 72 WP MM KATE 1955-09-22 12:00:00 TS 16.8167 124.917 960 tokyo main 255 223 OOO______OOO__ jtwc_wp WP141955 16.8000 124.900 120 4 16.8000 125.000 9 960 0 0 0 16.9000 124.900 6 106 951 16.8000 124.900 TC 120 16.8000 124.900 4 120 16.8000 124.900 120 939 240 8 283
1955259N10153 1955 72 WP MM KATE 1955-09-22 15:00:00 TS 16.9544 124.540 main 212 181 PPP______PPP__ WP141955 16.9774 124.535 125 4 16.8624 124.580 9 960 0 0 16.9923 124.472 6 116 945 16.9774 124.535 TC 125 16.9398 124.581 4 122 16.9774 124.535 125 939 210 8 294
1955259N10153 1955 72 WP MM KATE 1955-09-22 18:00:00 TS 17.1376 124.163 960 tokyo main 181 142 OOO______OPO__ jtwc_wp WP141955 17.2000 124.200 130 4 17.0000 124.100 9 960 0 0 0 17.1000 124.000 6 126 940 17.2000 124.200 TC 130 17.1257 124.275 4 125 17.2000 124.200 130 940 180 8 296
1955259N10153 1955 72 WP MM KATE 1955-09-22 21:00:00 TS 17.3062 123.782 main 142 98 PPP______PPP__ WP141955 17.3571 123.902 130 4 17.2499 123.573 9 945 0 0 17.1923 123.480 6 126 935 17.3571 123.902 TC 130 17.3239 123.931 4 127 17.3571 123.902 130 944 210 9 292
1955259N10153 1955 72 WP MM KATE 1955-09-23 00:00:00 TS 17.4667 123.317 930 tokyo main 98 46 OOO______OOO__ jtwc_wp WP141955 17.5000 123.500 130 4 17.5000 123.000 9 930 0 0 0 17.3000 122.900 6 126 931 17.5000 123.500 TC 130 17.5000 123.500 4 130 17.5000 123.500 130 948 240 11 287
1955259N10153 1955 72 WP MM KATE 1955-09-23 03:00:00 TS 17.6222 122.695 main 46 0 PPP______PPP__ WP141955 17.6728 122.845 122 4 17.6371 122.437 9 935 0 0 17.4574 122.273 6 126 935 17.6728 122.845 TC 122 17.6204 122.927 4 122 17.6728 122.845 122 951 270 13 282
1955259N10153 1955 72 WP MM KATE 1955-09-23 06:00:00 TS 17.7351 121.994 940 tokyo main 0 0 OOO______OPO__ jtwc_wp WP141955 17.8000 122.100 115 4 17.7000 121.800 9 940 0 0 0 17.6000 121.600 6 126 939 17.8000 122.100 TC 115 17.7104 122.263 4 115 17.8000 122.100 115 955 300 13 277
1955259N10153 1955 72 WP MM KATE 1955-09-23 09:00:00 TS 17.7731 121.306 main 0 0 PPP______PPP__ WP141955 17.8221 121.457 107 3 17.7227 121.015 9 950 0 0 17.6798 120.907 6 121 942 17.8221 121.457 TC 107 17.7701 121.542 4 107 17.8221 121.457 107 959 270 13 271
1955259N10153 1955 72 WP MM KATE 1955-09-23 12:00:00 TS 17.7667 120.600 960 tokyo main 0 0 OOO______OOO__ jtwc_wp WP141955 17.8000 120.800 100 3 17.7000 120.200 9 960 0 0 0 17.7000 120.200 6 116 945 17.8000 120.800 TC 100 17.8000 120.800 4 100 17.8000 120.800 100 963 240 14 269
1955259N10153 1955 72 WP MM KATE 1955-09-23 15:00:00 TS 17.7534 119.871 main 47 47 PPP______PPP__ WP141955 17.8075 120.058 100 3 17.6497 119.477 9 960 0 0 17.6573 119.492 6 116 947 17.8075 120.058 TC 100 17.7911 120.084 4 100 17.8075 120.058 100 969 240 14 268
1955259N10153 1955 72 WP MM KATE 1955-09-23 18:00:00 TS 17.7262 119.143 960 tokyo main 127 127 OOO______OPO__ jtwc_wp WP141955 17.8000 119.300 100 3 17.6000 118.800 9 960 0 0 0 17.6000 118.800 6 116 950 17.8000 119.300 TC 100 17.7569 119.356 4 100 17.8000 119.300 100 976 240 14 267
1955259N10153 1955 72 WP MM KATE 1955-09-23 21:00:00 TS 17.6921 118.453 main 191 191 PPP______PPP__ WP141955 17.7497 118.592 100 3 17.5921 118.158 9 960 0 0 17.5921 118.158 6 111 952 17.7497 118.592 TC 100 17.7192 118.625 4 100 17.7497 118.592 100 970 240 13 267
1955259N10153 1955 72 WP MM KATE 1955-09-24 00:00:00 TS 17.6667 117.767 960 tokyo main 264 264 OOO______OOO__ jtwc_wp WP141955 17.7000 117.900 100 3 17.6000 117.500 9 960 0 0 0 17.6000 117.500 6 106 955 17.7000 117.900 TC 100 17.7000 117.900 4 100 17.7000 117.900 100 964 240 13 268
1955259N10153 1955 72 WP MM KATE 1955-09-24 03:00:00 TS 17.6523 117.049 main 336 336 PPP______PPP__ WP141955 17.6773 117.200 105 3 17.5777 116.735 9 965 0 0 17.5849 116.765 6 106 955 17.6773 117.200 TC 105 17.7194 117.193 4 105 17.6773 117.200 105 969 270 14 270
1955259N10153 1955 72 WP MM KATE 1955-09-24 06:00:00 TS 17.6769 116.332 970 tokyo main 403 403 OOO______OPO__ jtwc_wp WP141955 17.7000 116.500 110 3 17.6000 116.000 9 970 0 0 0 17.6000 116.000 6 106 955 17.7000 116.500 TC 110 17.7614 116.493 4 110 17.7000 116.500 110 975 300 13 275
1955259N10153 1955 72 WP MM KATE 1955-09-24 09:00:00 TS 17.7585 115.644 main 477 462 PPP______PPP__ WP141955 17.7774 115.785 115 4 17.7268 115.450 9 975 0 0 17.6695 115.265 6 106 955 17.7774 115.785 TC 115 17.8226 115.796 4 115 17.7774 115.785 115 973 270 13 279
1955259N10153 1955 72 WP MM KATE 1955-09-24 12:00:00 TS 17.8833 114.967 980 tokyo main 462 390 OOO______OOO__ jtwc_wp WP141955 17.9000 115.100 120 4 17.9000 114.900 9 980 0 0 0 17.8000 114.500 6 106 955 17.9000 115.100 TC 120 17.9000 115.100 4 120 17.9000 115.100 120 971 240 13 282
1955259N10153 1955 72 WP MM KATE 1955-09-24 15:00:00 TS 18.0315 114.290 main 390 315 PPP______PPP__ WP141955 18.0569 114.515 120 4 18.0578 114.158 9 980 0 0 17.9702 113.635 6 101 956 18.0569 114.515 TC 120 17.9903 114.403 4 120 18.0569 114.515 120 970 270 13 283
1955259N10153 1955 72 WP MM KATE 1955-09-24 18:00:00 TS 18.1856 113.596 980 tokyo main 315 247 OOO______OPO__ jtwc_wp WP141955 18.2000 113.900 120 4 18.2000 113.400 9 980 0 0 0 18.2000 112.800 5 97 958 18.2000 113.900 TC 120 18.0896 113.703 4 120 18.2000 113.900 120 969 300 13 282
1955259N10153 1955 72 WP MM KATE 1955-09-24 21:00:00 TS 18.3029 112.902 main 247 181 PPP______PPP__ WP141955 18.2642 113.182 120 4 18.2994 112.800 9 980 0 0 18.4770 112.112 5 97 958 18.2642 113.182 TC 120 18.1941 113.002 4 120 18.2642 113.182 120 967 300 14 279
1955259N10153 1955 72 WP MM KATE 1955-09-25 00:00:00 TS 18.4200 112.120 980 tokyo main 171 77 OOO______OOO__ jtwc_wp WP141955 18.3000 112.300 120 4 18.4000 112.200 9 980 0 0 0 18.8000 111.500 5 97 958 18.3000 112.300 TC 120 18.3000 112.300 4 120 18.3000 112.300 120 966 300 17 280
1955259N10153 1955 72 WP MM KATE 1955-09-25 03:00:00 TS 18.5920 111.185 main 77 0 PPP______P_P__ WP141955 18.3880 111.181 120 4 18.5498 111.488 9 980 0 0 19.1649 110.878 5 97 958 18.3880 111.181 TC 120 4 18.3469 111.210 120 965 300 18 280
1955259N10153 1955 72 WP MM KATE 1955-09-25 06:00:00 TS 18.7294 110.235 980 tokyo main 0 0 OOO______O_O__ jtwc_wp WP141955 18.4000 110.000 120 4 18.7000 110.700 9 980 0 0 0 19.5000 110.300 5 97 958 18.4000 110.000 TC 120 4 18.4000 110.000 120 964 300 17 274
1955259N10153 1955 72 WP MM KATE 1955-09-25 09:00:00 TS 18.7157 109.344 main 0 0 PPP______P____ WP141955 18.1629 108.864 105 3 18.8150 109.850 9 980 0 0 19.7221 109.800 5 87 966 18.1629 108.864 TC 105 4 16 269
1955259N10153 1955 72 WP MM KATE 1955-09-25 12:00:00 TS 18.7000 108.575 980 tokyo main 10 10 OOO______O____ jtwc_wp WP141955 18.0000 108.000 90 2 18.9000 109.000 9 980 0 0 0 19.9000 109.300 4 77 975 18.0000 108.000 TC 90 12 278
1955259N10153 1955 72 WP MM KATE 1955-09-25 15:00:00 TS 18.8838 108.051 main 63 63 PPP______P____ WP141955 18.2241 107.638 82 1 18.9647 108.220 9 980 0 0 20.1225 108.708 4 72 977 18.2241 107.638 TC 82 10 296
1955259N10153 1955 72 WP MM KATE 1955-09-25 18:00:00 TS 19.1250 107.650 980 tokyo main 97 97 OOO______O____ jtwc_wp WP141955 18.6000 107.500 75 1 19.0000 107.500 9 980 0 0 0 20.3000 108.100 4 68 980 18.6000 107.500 TC 75 9 299
1955259N10153 1955 72 WP MM KATE 1955-09-25 21:00:00 TS 19.3136 107.221 main 124 91 PPP______P____ WP141955 18.9600 107.250 67 1 18.9922 106.827 9 980 0 0 20.3421 107.557 4 63 982 18.9600 107.250 TC 67 9 288
1955259N10153 1955 72 WP MM KATE 1955-09-26 00:00:00 TS 19.3867 106.787 980 tokyo main 91 62 OOO______O____ jtwc_wp WP141955 19.2000 107.000 60 0 19.0000 106.200 9 980 0 0 0 20.4000 107.000 3 58 985 19.2000 107.000 TC 60 8 272
1955259N10153 1955 72 WP MM KATE 1955-09-26 03:00:00 TS 19.3383 106.361 main 62 31 PPP______P____ WP141955 19.1525 106.750 50 0 19.0774 105.578 9 980 0 0 20.6032 106.373 3 58 990 19.1525 106.750 TC 50 7 255
1955259N10153 1955 72 WP MM KATE 1955-09-26 06:00:00 TS 19.2083 106.058 980 tokyo main 33 23 OOO______O____ jtwc_wp WP141955 19.0000 106.500 40 0 19.2000 105.000 9 980 0 0 0 20.9000 105.700 3 58 995 19.0000 106.500 TC 40 6 218
1955259N10153 1955 72 WP MM KATE 1955-09-26 09:00:00 TS 18.8903 105.985 main 30 10 PP_______P____ WP141955 18.7766 106.360 37 0 19.3452 104.483 9 982 0 0 3 18.7766 106.360 TC 37 4 236
1955259N10153 1955 72 WP MM KATE 1955-09-26 12:00:00 TS 18.9857 105.714 985 tokyo main 10 0 OO_______O____ jtwc_wp WP141955 18.9000 106.000 35 0 19.5000 104.000 9 985 0 0 0 18.9000 106.000 TC 35 12 317
1955259N10153 1955 72 WP MM KATE 1955-09-26 15:00:00 TS 19.7349 105.156 main 0 0 P________P____ WP141955 19.7349 105.156 30 -1 9 0 0 19.7349 105.156 TC 30 26 321
1955259N10153 1955 72 WP MM KATE 1955-09-26 18:00:00 TS 21.0000 104.000 main 0 O________O____ jtwc_wp WP141955 21.0000 104.000 25 -1 21.0000 104.000 TC 25 33 320

Digital Typhoon Data and Search

About IBTrACS Database

This database is a web-friendly format of International Best Track Archive for Climate Stewardship (IBTrACS), a global best track data archive curated by NOAA dating back to 1842.

Updated: 2021-10-25